Time;durP1;ratioP1;P1;durP2;ratioP2;P2;SDS_P1;SDS_P2;PMS_P1;PMS_P2;Temp;Humidity;BMP_temperature;BMP_pressure;BME280_temperature;BME280_humidity;BME280_pressure;Samples;Min_cycle;Max_cycle;Signal;HPM_P1;HPM_P2
2021/01/03 00:01:00;;;;;;;42.92;23.45;;;0.90;99.90;;;;;;5144520;27;20201;-88
2021/01/03 00:03:27;;;;;;;35.50;20.30;;;0.90;99.90;;;;;;5142694;28;20291;-86
2021/01/03 00:05:53;;;;;;;32.17;20.90;;;0.90;99.90;;;;;;5144418;27;20200;-88
2021/01/03 00:08:20;;;;;;;28.13;18.50;;;0.90;99.90;;;;;;5144117;28;20261;-88
2021/01/03 00:10:46;;;;;;;34.08;19.33;;;0.90;99.90;;;;;;5144272;28;20204;-86
2021/01/03 00:13:13;;;;;;;33.65;18.83;;;1.00;99.90;;;;;;5144483;28;20660;-85
2021/01/03 00:15:39;;;;;;;34.17;19.23;;;1.10;99.90;;;;;;5147592;28;20250;-89
2021/01/03 00:18:06;;;;;;;34.28;18.13;;;0.90;99.90;;;;;;5148239;28;20220;-85
2021/01/03 00:20:33;;;;;;;34.25;20.40;;;1.00;99.90;;;;;;5149899;28;20205;-88
2021/01/03 00:23:00;;;;;;;35.13;20.10;;;0.80;99.90;;;;;;5149080;28;20211;-87
2021/01/03 00:25:33;;;;;;;42.05;21.17;;;0.90;99.90;;;;;;5143747;28;20203;-87
2021/01/03 00:28:03;;;;;;;37.78;22.10;;;0.80;99.90;;;;;;5141470;28;20220;-88
2021/01/03 00:30:29;;;;;;;42.78;23.75;;;0.80;99.90;;;;;;5143096;28;20695;-88
2021/01/03 00:32:57;;;;;;;51.20;25.92;;;0.80;99.90;;;;;;5141553;28;20203;-87
2021/01/03 00:35:29;;;;;;;42.85;22.65;;;0.80;99.90;;;;;;5141439;28;20726;-87
2021/01/03 00:37:59;;;;;;;40.90;23.83;;;0.90;99.90;;;;;;5146403;28;20283;-88
2021/01/03 00:40:26;;;;;;;43.45;22.10;;;0.90;99.90;;;;;;5156864;28;20233;-88
2021/01/03 00:42:53;;;;;;;39.88;20.70;;;1.00;99.90;;;;;;5153723;27;20210;-86
2021/01/03 00:45:19;;;;;;;37.30;21.38;;;0.90;99.90;;;;;;5149084;28;20196;-87
2021/01/03 00:47:46;;;;;;;40.10;22.38;;;0.80;99.90;;;;;;5154616;28;20212;-86
2021/01/03 00:50:13;;;;;;;39.97;22.90;;;0.80;99.90;;;;;;5156241;27;20197;-88
2021/01/03 00:52:40;;;;;;;37.47;23.25;;;0.90;99.90;;;;;;5143521;28;20245;-87
2021/01/03 00:55:10;;;;;;;37.28;20.67;;;1.00;99.90;;;;;;5142801;28;20223;-86
2021/01/03 00:57:37;;;;;;;35.50;19.70;;;1.00;99.90;;;;;;5142791;28;20216;-87
2021/01/03 01:00:07;;;;;;;34.03;20.60;;;1.00;99.90;;;;;;5143004;28;20228;-86
2021/01/03 01:02:33;;;;;;;34.72;19.73;;;1.10;99.90;;;;;;5142985;28;20181;-86
2021/01/03 01:05:00;;;;;;;40.03;22.15;;;1.10;99.90;;;;;;5143090;28;20289;-85
2021/01/03 01:07:26;;;;;;;38.63;21.70;;;1.10;99.90;;;;;;5146888;28;20764;-85
2021/01/03 01:09:53;;;;;;;30.67;19.17;;;1.10;99.90;;;;;;5150832;28;20197;-87
2021/01/03 01:12:20;;;;;;;29.20;18.27;;;1.20;99.90;;;;;;5149710;28;20350;-88
2021/01/03 01:14:49;;;;;;;30.10;18.63;;;1.30;99.90;;;;;;5148253;28;20200;-88
2021/01/03 01:17:16;;;;;;;34.88;19.08;;;1.30;99.90;;;;;;5145329;27;20306;-87
2021/01/03 01:19:42;;;;;;;31.98;18.92;;;1.20;99.90;;;;;;5145819;27;20192;-87
2021/01/03 01:22:09;;;;;;;28.27;18.58;;;1.20;99.90;;;;;;5145835;27;20201;-87
2021/01/03 01:24:35;;;;;;;31.67;18.27;;;1.20;99.90;;;;;;5144594;27;20189;-87
2021/01/03 01:27:02;;;;;;;27.90;16.77;;;1.40;99.90;;;;;;5145151;27;20653;-87
2021/01/03 01:29:29;;;;;;;29.85;16.15;;;1.30;99.90;;;;;;5145206;27;20196;-88
2021/01/03 01:31:55;;;;;;;28.10;17.35;;;1.20;99.90;;;;;;5145907;27;20200;-86
2021/01/03 01:34:22;;;;;;;27.02;17.65;;;1.20;99.90;;;;;;5145687;27;20268;-86
2021/01/03 01:36:49;;;;;;;23.60;16.33;;;1.30;99.90;;;;;;5146082;27;20231;-88
2021/01/03 01:39:16;;;;;;;23.00;15.40;;;1.30;99.90;;;;;;5145528;27;20575;-88
2021/01/03 01:41:42;;;;;;;31.83;17.17;;;1.30;99.90;;;;;;5147150;27;20235;-86
2021/01/03 01:44:08;;;;;;;29.75;17.65;;;1.20;99.90;;;;;;5145093;27;20235;-87
2021/01/03 01:46:39;;;;;;;28.73;16.23;;;1.20;99.90;;;;;;5144526;27;20255;-87
2021/01/03 01:49:10;;;;;;;27.98;16.23;;;1.20;99.90;;;;;;5144152;27;20208;-87
2021/01/03 01:51:41;;;;;;;26.58;17.15;;;1.30;99.90;;;;;;5144096;27;20216;-86
2021/01/03 01:54:15;;;;;;;27.55;16.85;;;1.40;99.90;;;;;;5145208;27;20216;-88
2021/01/03 01:56:48;;;;;;;25.85;14.55;;;1.40;99.90;;;;;;5143892;27;20259;-87
2021/01/03 01:59:18;;;;;;;28.63;15.70;;;1.40;99.90;;;;;;5144245;27;20223;-87
2021/01/03 02:01:52;;;;;;;24.08;16.00;;;1.40;99.90;;;;;;5143803;27;20241;-87
2021/01/03 02:04:29;;;;;;;23.67;14.45;;;1.40;99.90;;;;;;5144301;27;20656;-87
2021/01/03 02:07:00;;;;;;;24.70;15.65;;;1.50;99.90;;;;;;5143754;27;20239;-87
2021/01/03 02:09:35;;;;;;;26.80;16.17;;;1.40;99.90;;;;;;5144845;27;20652;-87
2021/01/03 02:12:14;;;;;;;23.45;14.43;;;1.60;99.90;;;;;;5144814;27;20268;-87
2021/01/03 02:14:42;;;;;;;20.67;13.77;;;1.60;99.90;;;;;;5151852;27;20184;-86
2021/01/03 02:17:09;;;;;;;22.65;12.77;;;1.70;99.90;;;;;;5151956;27;20225;-86
2021/01/03 02:19:36;;;;;;;22.58;13.80;;;1.60;99.90;;;;;;5148507;27;20204;-88
2021/01/03 02:22:11;;;;;;;20.05;12.57;;;1.60;99.90;;;;;;5145279;27;20239;-87
2021/01/03 02:24:45;;;;;;;20.25;12.80;;;1.60;99.90;;;;;;5145518;27;20239;-87
2021/01/03 02:27:18;;;;;;;20.35;12.70;;;1.60;99.90;;;;;;5144822;27;20254;-87
2021/01/03 02:29:48;;;;;;;20.80;13.23;;;1.60;99.90;;;;;;5146061;27;20185;-88
2021/01/03 02:32:15;;;;;;;20.58;11.65;;;1.60;99.90;;;;;;5149646;27;20560;-87
2021/01/03 02:34:47;;;;;;;21.17;13.73;;;1.60;99.90;;;;;;5148720;27;20196;-87
2021/01/03 02:37:18;;;;;;;21.50;13.15;;;1.60;99.90;;;;;;5147124;27;20248;-87
2021/01/03 02:39:52;;;;;;;20.90;12.15;;;1.50;99.90;;;;;;5144744;27;20271;-86
2021/01/03 02:42:23;;;;;;;21.05;12.90;;;1.50;99.90;;;;;;5143870;27;20189;-87
2021/01/03 02:44:51;;;;;;;20.67;11.75;;;1.50;99.90;;;;;;5143199;27;20216;-87
2021/01/03 02:47:21;;;;;;;23.25;12.98;;;1.50;99.90;;;;;;5145641;27;20804;-88
2021/01/03 02:49:47;;;;;;;19.10;11.27;;;1.40;99.90;;;;;;5145070;27;20185;-86
2021/01/03 02:52:22;;;;;;;21.30;11.30;;;1.40;99.90;;;;;;5144560;27;20248;-86
2021/01/03 02:54:48;;;;;;;19.20;12.10;;;1.40;99.90;;;;;;5144934;27;20188;-86
2021/01/03 02:57:14;;;;;;;20.52;11.65;;;1.60;99.90;;;;;;5145203;27;20231;-88
2021/01/03 02:59:42;;;;;;;21.00;13.38;;;1.60;99.90;;;;;;5144068;27;20593;-86
2021/01/03 03:02:08;;;;;;;18.48;11.18;;;1.60;99.90;;;;;;5145803;27;20287;-87
2021/01/03 03:04:34;;;;;;;16.75;11.55;;;1.70;99.90;;;;;;5144585;27;20196;-87
2021/01/03 03:07:01;;;;;;;16.48;11.57;;;1.60;99.90;;;;;;5152648;27;20244;-87
2021/01/03 03:09:27;;;;;;;19.63;12.55;;;1.60;99.90;;;;;;5158983;27;20242;-84
2021/01/03 03:11:54;;;;;;;16.13;10.60;;;1.50;99.90;;;;;;5157836;27;20208;-85
2021/01/03 03:14:20;;;;;;;21.55;12.65;;;1.60;99.90;;;;;;5143841;27;20231;-88
2021/01/03 03:16:47;;;;;;;18.40;12.27;;;1.60;99.90;;;;;;5142631;27;20645;-87
2021/01/03 03:19:16;;;;;;;20.10;12.40;;;1.60;99.90;;;;;;5143495;27;20267;-88
2021/01/03 03:21:50;;;;;;;20.50;11.98;;;1.60;99.90;;;;;;5144599;27;20687;-86
2021/01/03 03:24:16;;;;;;;17.67;11.00;;;1.60;99.90;;;;;;5145141;27;20206;-87
2021/01/03 03:26:42;;;;;;;20.63;11.30;;;1.60;99.90;;;;;;5143645;27;20227;-88
2021/01/03 03:29:09;;;;;;;15.48;10.25;;;1.60;99.90;;;;;;5144894;27;20211;-87
2021/01/03 03:31:35;;;;;;;16.27;9.50;;;1.70;99.90;;;;;;5144887;27;20290;-87
2021/01/03 03:34:03;;;;;;;20.38;10.60;;;1.70;99.90;;;;;;5143099;27;20723;-86
2021/01/03 03:36:29;;;;;;;20.15;12.57;;;1.70;99.90;;;;;;5143314;27;20236;-87
2021/01/03 03:38:55;;;;;;;16.88;10.32;;;1.70;99.90;;;;;;5143234;27;20200;-87
2021/01/03 03:41:24;;;;;;;15.10;10.40;;;1.70;99.90;;;;;;5143318;27;20626;-88
2021/01/03 03:43:50;;;;;;;16.13;10.27;;;1.70;99.90;;;;;;5147590;27;20216;-87
2021/01/03 03:46:17;;;;;;;17.50;9.90;;;1.70;99.90;;;;;;5156882;27;20201;-86
2021/01/03 03:48:43;;;;;;;16.35;10.48;;;1.80;99.90;;;;;;5139453;22;20316;-85
2021/01/03 03:51:15;;;;;;;19.00;10.35;;;1.70;99.90;;;;;;5115320;28;20201;-85
2021/01/03 03:53:41;;;;;;;15.35;9.27;;;1.70;99.90;;;;;;5115523;28;20272;-84
2021/01/03 03:56:09;;;;;;;14.55;9.65;;;1.80;99.90;;;;;;5116470;28;20594;-85
2021/01/03 03:58:35;;;;;;;17.10;10.05;;;1.80;99.90;;;;;;5115612;28;20216;-84
2021/01/03 04:01:02;;;;;;;17.25;12.40;;;1.70;99.90;;;;;;5115234;28;20673;-84
2021/01/03 04:03:28;;;;;;;15.35;11.23;;;1.70;99.90;;;;;;5114891;28;20200;-84
2021/01/03 04:05:55;;;;;;;12.20;8.55;;;1.80;99.90;;;;;;5116862;28;20193;-84
2021/01/03 04:08:22;;;;;;;11.23;8.48;;;1.80;99.90;;;;;;5116304;28;20221;-85
2021/01/03 04:10:48;;;;;;;13.25;10.88;;;1.80;99.90;;;;;;5117334;28;20201;-85
2021/01/03 04:13:15;;;;;;;19.10;9.48;;;1.70;99.90;;;;;;5116830;28;20231;-85
2021/01/03 04:15:41;;;;;;;14.10;9.07;;;1.60;99.90;;;;;;5117667;28;20213;-84
2021/01/03 04:18:08;;;;;;;14.73;8.57;;;1.70;99.90;;;;;;5116421;28;20253;-84
2021/01/03 04:20:35;;;;;;;15.70;8.80;;;1.80;99.90;;;;;;5116891;28;20211;-84
2021/01/03 04:23:04;;;;;;;16.60;9.32;;;1.70;99.90;;;;;;5116468;28;20232;-84
2021/01/03 04:25:31;;;;;;;13.75;9.15;;;1.80;99.90;;;;;;5115252;28;20673;-85
2021/01/03 04:27:57;;;;;;;12.80;9.32;;;1.80;99.90;;;;;;5114957;28;20221;-83
2021/01/03 04:30:25;;;;;;;15.85;10.00;;;1.90;99.90;;;;;;5115488;28;20200;-84
2021/01/03 04:32:53;;;;;;;12.82;8.20;;;1.80;99.90;;;;;;5115365;28;20205;-86
2021/01/03 04:35:21;;;;;;;12.32;7.63;;;1.90;99.90;;;;;;5116625;28;20217;-85
2021/01/03 04:37:51;;;;;;;12.07;9.35;;;1.90;99.90;;;;;;5122262;28;20231;-84
2021/01/03 04:40:20;;;;;;;12.27;7.70;;;2.00;99.90;;;;;;5118645;28;20216;-85
2021/01/03 04:42:53;;;;;;;11.20;8.13;;;1.90;99.90;;;;;;5115548;28;20285;-85
2021/01/03 04:45:26;;;;;;;11.30;7.57;;;1.80;99.90;;;;;;5115000;28;20214;-85
2021/01/03 04:47:57;;;;;;;17.42;10.15;;;1.80;99.90;;;;;;5114711;28;20235;-85
2021/01/03 04:50:54;;;;;;;13.80;9.63;;;1.90;99.90;;;;;;5114880;28;20197;-85
2021/01/03 04:53:33;;;;;;;12.80;8.60;;;1.90;99.90;;;;;;5118029;28;20199;-84
2021/01/03 04:56:09;;;;;;;13.55;9.35;;;1.90;99.90;;;;;;5118106;28;20213;-85
2021/01/03 04:58:47;;;;;;;14.80;9.43;;;1.90;99.90;;;;;;5117825;28;20587;-84
2021/01/03 05:01:50;;;;;;;16.40;10.00;;;1.90;99.90;;;;;;5118484;28;20701;-84
2021/01/03 05:04:42;;;;;;;17.15;11.23;;;1.80;99.90;;;;;;5131570;28;20196;-83
2021/01/03 05:07:11;;;;;;;13.55;10.40;;;1.70;99.90;;;;;;5123559;28;20225;-84
2021/01/03 05:09:37;;;;;;;14.38;10.13;;;1.80;99.90;;;;;;5123237;28;20231;-84
2021/01/03 05:12:13;;;;;;;14.85;9.57;;;1.70;99.90;;;;;;5124287;28;20268;-84
2021/01/03 05:14:43;;;;;;;15.98;10.88;;;1.80;99.90;;;;;;5121713;28;20184;-84
2021/01/03 05:17:10;;;;;;;16.75;11.88;;;1.80;99.90;;;;;;5120757;28;20233;-83
2021/01/03 05:19:36;;;;;;;17.13;10.45;;;1.80;99.90;;;;;;5118537;28;20292;-84
2021/01/03 05:22:03;;;;;;;16.80;11.10;;;1.80;99.90;;;;;;5118211;28;20201;-84
2021/01/03 05:24:41;;;;;;;15.50;11.02;;;1.80;99.90;;;;;;5117567;28;20196;-85
2021/01/03 05:27:13;;;;;;;15.30;11.85;;;1.80;99.90;;;;;;5117932;28;20224;-84
2021/01/03 05:29:40;;;;;;;17.02;10.50;;;1.80;99.90;;;;;;5117357;28;20209;-84
2021/01/03 05:32:07;;;;;;;17.75;11.75;;;1.80;99.90;;;;;;5117662;28;20207;-85
2021/01/03 05:34:36;;;;;;;18.35;11.93;;;1.70;99.90;;;;;;5117981;28;20208;-85
2021/01/03 05:37:07;;;;;;;19.23;12.57;;;1.70;99.90;;;;;;5117356;28;20232;-84
2021/01/03 05:39:35;;;;;;;19.92;13.85;;;1.70;99.90;;;;;;5118398;28;20197;-84
2021/01/03 05:42:21;;;;;;;19.10;13.10;;;1.70;99.90;;;;;;5118179;28;20229;-84
2021/01/03 05:44:57;;;;;;;20.33;12.80;;;1.70;99.90;;;;;;5118012;28;20196;-83
2021/01/03 05:47:29;;;;;;;16.98;11.05;;;1.70;99.90;;;;;;5117530;28;20255;-84
2021/01/03 05:50:15;;;;;;;18.13;11.60;;;1.80;99.90;;;;;;5117778;28;20657;-84
2021/01/03 05:52:49;;;;;;;18.67;10.25;;;1.50;99.90;;;;;;5118028;28;20189;-84
2021/01/03 05:55:23;;;;;;;17.10;10.45;;;1.40;99.90;;;;;;5117463;28;20215;-84
2021/01/03 05:58:02;;;;;;;17.58;12.48;;;1.60;99.90;;;;;;5117393;28;20221;-84
2021/01/03 06:00:30;;;;;;;16.17;12.10;;;1.40;99.90;;;;;;5118210;28;20250;-84
2021/01/03 06:03:17;;;;;;;16.20;11.52;;;1.40;99.90;;;;;;5116336;28;20205;-84
2021/01/03 06:05:46;;;;;;;18.25;12.18;;;1.50;99.90;;;;;;5119220;28;20634;-84
2021/01/03 06:08:18;;;;;;;18.35;12.55;;;1.50;99.90;;;;;;5117599;28;20227;-84
2021/01/03 06:10:45;;;;;;;19.50;14.18;;;1.50;99.90;;;;;;5116952;28;20185;-84
2021/01/03 06:13:13;;;;;;;18.75;12.05;;;1.50;99.90;;;;;;5117532;28;20197;-83
2021/01/03 06:15:44;;;;;;;15.15;10.63;;;1.50;99.90;;;;;;5117382;28;20258;-83
2021/01/03 06:18:17;;;;;;;20.52;12.40;;;1.50;99.90;;;;;;5117308;28;20225;-83
2021/01/03 06:20:44;;;;;;;17.67;12.68;;;1.50;99.90;;;;;;5117821;28;20272;-84
2021/01/03 06:23:13;;;;;;;19.15;12.68;;;1.40;99.90;;;;;;5119027;28;20434;-84
2021/01/03 06:25:49;;;;;;;19.52;13.23;;;1.50;99.90;;;;;;5120919;28;20205;-84
2021/01/03 06:28:34;;;;;;;15.88;13.38;;;1.50;99.90;;;;;;5121434;28;20307;-84
2021/01/03 06:31:27;;;;;;;16.38;10.18;;;1.50;99.90;;;;;;5123948;28;20248;-83
2021/01/03 06:34:12;;;;;;;18.73;11.30;;;1.50;99.90;;;;;;5110898;28;20247;-84
2021/01/03 06:36:47;;;;;;;18.75;13.10;;;1.60;99.90;;;;;;5120387;28;20450;-84
2021/01/03 06:39:28;;;;;;;13.85;10.73;;;1.60;99.90;;;;;;5121219;28;20185;-84
2021/01/03 06:41:58;;;;;;;14.95;9.77;;;1.70;99.90;;;;;;5121355;28;20211;-84
2021/01/03 06:44:56;;;;;;;12.60;9.18;;;1.70;99.90;;;;;;5120976;28;20185;-84
2021/01/03 06:47:56;;;;;;;13.55;8.52;;;1.60;99.90;;;;;;5121332;28;20235;-84
2021/01/03 06:50:55;;;;;;;13.15;9.80;;;1.70;99.90;;;;;;5121274;28;20228;-84
2021/01/03 06:54:01;;;;;;;13.18;9.50;;;1.60;99.90;;;;;;5120610;28;20899;-84
2021/01/03 06:56:57;;;;;;;14.45;8.25;;;1.70;99.90;;;;;;5102071;28;20450;-84
2021/01/03 06:59:53;;;;;;;16.40;9.73;;;1.70;99.90;;;;;;5121008;28;20201;-83
2021/01/03 07:02:21;;;;;;;17.25;10.02;;;1.70;99.90;;;;;;5120708;28;20653;-84
2021/01/03 07:04:48;;;;;;;15.70;9.63;;;1.60;99.90;;;;;;5129350;28;20278;-83
2021/01/03 07:07:19;;;;;;;14.95;9.50;;;1.60;99.90;;;;;;5136864;28;20241;-83
2021/01/03 07:09:56;;;;;;;12.48;8.82;;;1.60;99.90;;;;;;5122411;28;20196;-83
2021/01/03 07:12:35;;;;;;;11.52;8.60;;;1.60;99.90;;;;;;5120713;28;20246;-83
2021/01/03 07:15:05;;;;;;;16.98;11.30;;;1.60;99.90;;;;;;5122462;28;20516;-83
2021/01/03 07:18:05;;;;;;;18.45;12.93;;;1.60;99.90;;;;;;5121778;28;20491;-83
2021/01/03 07:20:36;;;;;;;21.40;13.10;;;1.60;99.90;;;;;;5119411;28;20189;-83
2021/01/03 07:23:12;;;;;;;18.55;10.95;;;1.50;99.90;;;;;;5122207;28;20252;-83
2021/01/03 07:25:45;;;;;;;22.17;14.07;;;1.50;99.90;;;;;;5127150;28;20188;-84
2021/01/03 07:28:27;;;;;;;21.90;13.48;;;1.50;99.90;;;;;;5120986;28;20225;-84
2021/01/03 07:31:00;;;;;;;17.73;11.05;;;1.50;99.90;;;;;;5121545;28;20189;-84
2021/01/03 07:33:36;;;;;;;19.83;12.98;;;1.60;99.90;;;;;;5125701;28;20189;-84
2021/01/03 07:36:17;;;;;;;16.08;10.50;;;1.60;99.90;;;;;;5131574;28;20269;-84
2021/01/03 07:39:06;;;;;;;18.65;12.25;;;1.70;99.90;;;;;;5134231;28;20293;-84
2021/01/03 07:41:32;;;;;;;17.45;12.73;;;1.60;99.90;;;;;;5138989;28;20181;-82
2021/01/03 07:44:02;;;;;;;21.08;13.05;;;1.60;99.90;;;;;;5139740;28;20232;-82
2021/01/03 07:46:44;;;;;;;17.83;13.13;;;1.50;99.90;;;;;;5139609;28;20173;-83
2021/01/03 07:49:29;;;;;;;22.17;14.65;;;1.50;99.90;;;;;;5139369;28;20424;-82
2021/01/03 07:51:56;;;;;;;21.27;13.70;;;1.50;99.90;;;;;;5138861;28;20414;-83
2021/01/03 07:54:24;;;;;;;18.77;12.10;;;1.50;99.90;;;;;;5136700;28;20291;-83
2021/01/03 07:56:50;;;;;;;20.00;12.20;;;1.50;99.90;;;;;;5139063;28;20245;-83
2021/01/03 07:59:17;;;;;;;13.32;10.30;;;1.50;99.90;;;;;;5138941;28;20215;-82
2021/01/03 08:01:48;;;;;;;17.17;11.50;;;1.50;99.90;;;;;;5138826;28;20216;-83
2021/01/03 08:04:23;;;;;;;18.10;11.32;;;1.50;99.90;;;;;;5138694;28;20182;-83
2021/01/03 08:06:50;;;;;;;23.70;11.85;;;1.40;99.90;;;;;;5138855;28;20189;-83
2021/01/03 08:09:26;;;;;;;18.38;11.82;;;1.40;99.90;;;;;;5139267;28;20207;-82
2021/01/03 08:12:00;;;;;;;15.52;10.10;;;1.30;99.90;;;;;;5139256;28;20253;-83
2021/01/03 08:14:32;;;;;;;17.92;11.48;;;1.30;99.90;;;;;;5138463;28;20189;-83
2021/01/03 08:16:59;;;;;;;19.70;12.70;;;1.30;99.90;;;;;;5138939;28;20221;-82
2021/01/03 08:19:28;;;;;;;28.48;15.80;;;1.20;99.90;;;;;;5139297;28;20250;-83
2021/01/03 08:21:55;;;;;;;21.85;14.65;;;1.30;99.90;;;;;;5138972;28;20181;-82
2021/01/03 08:24:22;;;;;;;29.27;16.20;;;1.20;99.90;;;;;;5139130;28;20263;-82
2021/01/03 08:26:54;;;;;;;26.30;17.48;;;1.20;99.90;;;;;;5141348;28;20283;-83
2021/01/03 08:29:30;;;;;;;26.63;17.17;;;1.20;99.90;;;;;;5141247;28;20230;-84
2021/01/03 08:32:04;;;;;;;25.45;16.45;;;1.10;99.90;;;;;;5134354;28;20196;-85
2021/01/03 08:34:32;;;;;;;26.52;16.60;;;1.10;99.90;;;;;;5121157;28;20236;-85
2021/01/03 08:36:59;;;;;;;22.17;15.38;;;1.10;99.90;;;;;;5120870;28;20227;-84
2021/01/03 08:39:29;;;;;;;27.30;16.70;;;1.20;99.90;;;;;;5120546;28;20196;-84
2021/01/03 08:42:00;;;;;;;26.35;16.67;;;1.20;99.90;;;;;;5120310;28;20223;-85
2021/01/03 08:44:35;;;;;;;23.88;13.90;;;1.20;99.90;;;;;;5119697;28;20215;-85
2021/01/03 08:47:05;;;;;;;27.05;15.98;;;1.20;99.90;;;;;;5120336;28;20224;-84
2021/01/03 08:49:32;;;;;;;22.17;15.18;;;1.20;99.90;;;;;;5120481;28;20208;-84
2021/01/03 08:52:19;;;;;;;24.13;15.93;;;1.10;99.90;;;;;;5119536;28;20257;-84
2021/01/03 08:54:46;;;;;;;20.42;13.13;;;1.10;99.90;;;;;;5122275;28;20185;-84
2021/01/03 08:57:15;;;;;;;25.00;15.70;;;1.20;99.90;;;;;;5122495;28;20227;-84
2021/01/03 08:59:42;;;;;;;24.65;15.25;;;1.20;99.90;;;;;;5123819;28;20240;-85
2021/01/03 09:02:20;;;;;;;29.52;17.17;;;1.10;99.90;;;;;;5122863;28;20185;-84
2021/01/03 09:04:47;;;;;;;27.48;15.88;;;1.10;99.90;;;;;;5125078;28;20188;-84
2021/01/03 09:07:15;;;;;;;20.48;13.18;;;1.10;99.90;;;;;;5142357;28;20205;-83
2021/01/03 09:09:46;;;;;;;23.23;14.18;;;1.20;99.90;;;;;;5138927;28;20204;-84
2021/01/03 09:12:14;;;;;;;16.55;10.45;;;1.10;99.90;;;;;;5132537;28;20515;-84
2021/01/03 09:14:46;;;;;;;22.58;14.65;;;1.20;99.90;;;;;;5121187;28;20201;-84
2021/01/03 09:17:17;;;;;;;19.38;12.40;;;1.20;99.90;;;;;;5120031;28;20657;-84
2021/01/03 09:19:53;;;;;;;20.67;13.90;;;1.20;99.90;;;;;;5119863;28;20185;-84
2021/01/03 09:22:28;;;;;;;21.63;14.88;;;1.20;99.90;;;;;;5121620;28;20219;-84
2021/01/03 09:25:00;;;;;;;23.65;13.57;;;1.10;99.90;;;;;;5119789;28;20210;-85
2021/01/03 09:27:30;;;;;;;18.15;11.98;;;1.10;99.90;;;;;;5118392;28;20262;-85
2021/01/03 09:30:09;;;;;;;23.13;15.15;;;1.10;99.90;;;;;;5118592;28;20193;-85
2021/01/03 09:32:36;;;;;;;21.60;14.88;;;1.20;99.90;;;;;;5119617;28;20189;-84
2021/01/03 09:35:11;;;;;;;24.05;15.32;;;1.10;99.90;;;;;;5120884;28;20699;-85
2021/01/03 09:37:39;;;;;;;15.00;12.68;;;1.10;99.90;;;;;;5118928;28;20275;-85
2021/01/03 09:40:17;;;;;;;23.63;14.02;;;1.10;99.90;;;;;;5118356;28;20573;-85
2021/01/03 09:42:59;;;;;;;18.85;12.93;;;1.20;99.90;;;;;;5117802;28;20633;-85
2021/01/03 09:45:38;;;;;;;17.20;12.60;;;1.10;99.90;;;;;;5120422;28;20189;-86
2021/01/03 09:53:46;;;;;;;22.10;12.70;;;1.00;99.90;;;;;;5076500;28;20724;-89
2021/01/03 10:00:10;;;;;;;;;;;;;;;;;;;;;
2021/01/03 10:03:16;;;;;;;12.88;10.50;;;1.00;99.90;;;;;;5060799;28;20293;-89
2021/01/03 10:05:59;;;;;;;14.82;11.00;;;1.00;99.90;;;;;;5059530;28;20305;-88
2021/01/03 10:08:38;;;;;;;14.75;9.43;;;1.00;99.90;;;;;;5058985;28;20236;-89
2021/01/03 10:11:29;;;;;;;16.60;11.95;;;1.00;99.90;;;;;;5065827;28;20202;-88
2021/01/03 10:14:02;;;;;;;14.75;10.48;;;1.10;99.90;;;;;;5058737;28;20659;-89
2021/01/03 10:16:36;;;;;;;14.93;10.07;;;1.00;99.90;;;;;;5060035;28;20218;-89
2021/01/03 10:19:18;;;;;;;14.90;10.60;;;1.10;99.90;;;;;;5073133;28;20259;-89
2021/01/03 10:25:18;;;;;;;15.43;10.95;;;1.10;99.90;;;;;;5054309;28;20211;-90
2021/01/03 10:31:37;;;;;;;18.80;12.68;;;1.20;99.90;;;;;;5047872;28;20201;-89
2021/01/03 10:34:48;;;;;;;19.23;12.57;;;1.20;99.90;;;;;;5058592;28;20202;-89
2021/01/03 10:44:29;;;;;;;;;;;;;;;;;;;;;
2021/01/03 10:51:15;;;;;;;;;;;;;;;;;;;;;
2021/01/03 10:58:01;;;;;;;16.33;11.65;;;1.20;99.90;;;;;;4870990;29;20736;-90
2021/01/03 11:07:38;;;;;;;16.70;10.90;;;1.20;99.90;;;;;;4976845;28;20217;-89
2021/01/03 11:13:41;;;;;;;12.65;10.38;;;1.20;99.90;;;;;;4965454;28;20690;-89
2021/01/03 11:16:20;;;;;;;18.42;10.80;;;1.10;99.90;;;;;;5069825;28;20207;-90
2021/01/03 11:22:11;;;;;;;15.85;10.60;;;1.30;99.90;;;;;;5056032;28;20436;-90
2021/01/03 11:24:42;;;;;;;14.60;10.98;;;1.30;99.90;;;;;;5058096;28;20270;-90
2021/01/03 11:27:42;;;;;;;16.30;12.20;;;1.20;99.90;;;;;;5059077;28;20593;-90
2021/01/03 11:30:15;;;;;;;13.57;10.98;;;1.20;99.90;;;;;;5063559;28;20209;-88
2021/01/03 12:12:57;;;;;;;8.70;7.32;;;1.60;99.90;;;;;;5126512;22;20235;-90
2021/01/03 12:22:16;;;;;;;9.10;6.70;;;1.50;99.90;;;;;;5011713;28;20195;-90
2021/01/03 12:24:42;;;;;;;10.07;7.50;;;1.60;99.90;;;;;;5022721;22;20232;-86
2021/01/03 12:27:10;;;;;;;10.18;7.35;;;1.50;99.90;;;;;;5034208;28;20196;-86
2021/01/03 12:29:37;;;;;;;10.45;7.93;;;1.50;99.90;;;;;;5035673;28;20215;-87
2021/01/03 12:32:08;;;;;;;9.85;7.57;;;1.50;99.90;;;;;;5039141;28;20620;-88
2021/01/03 12:34:35;;;;;;;9.65;8.30;;;1.50;99.90;;;;;;5042979;28;20771;-87
2021/01/03 12:37:04;;;;;;;11.05;7.80;;;1.50;99.90;;;;;;5041420;28;20255;-87
2021/01/03 12:39:30;;;;;;;9.65;7.65;;;1.50;99.90;;;;;;5034102;28;20291;-86
2021/01/03 12:41:57;;;;;;;9.10;7.63;;;1.40;99.90;;;;;;5041939;28;20199;-86
2021/01/03 12:44:23;;;;;;;8.13;6.85;;;1.50;99.90;;;;;;5052608;28;20224;-85
2021/01/03 12:46:51;;;;;;;9.80;8.48;;;1.40;99.90;;;;;;5038018;28;20341;-87
2021/01/03 12:49:18;;;;;;;9.77;6.90;;;1.40;99.90;;;;;;5038066;28;20683;-87
2021/01/03 12:51:45;;;;;;;10.23;7.70;;;1.50;99.90;;;;;;5038753;28;20240;-87
2021/01/03 12:54:11;;;;;;;10.13;7.85;;;1.50;99.90;;;;;;5052663;28;20322;-86
2021/01/03 12:56:38;;;;;;;9.70;7.18;;;1.40;99.90;;;;;;5052844;28;20314;-86
2021/01/03 12:59:04;;;;;;;7.35;6.60;;;1.30;99.90;;;;;;5052121;28;20537;-87
2021/01/03 13:01:34;;;;;;;8.73;7.82;;;1.40;99.90;;;;;;5052222;28;20204;-87
2021/01/03 13:04:09;;;;;;;9.80;8.00;;;1.40;99.90;;;;;;5053114;28;20204;-89
2021/01/03 13:06:36;;;;;;;8.30;6.60;;;1.40;99.90;;;;;;5053876;28;20192;-89
2021/01/03 13:09:05;;;;;;;9.43;7.85;;;1.50;99.90;;;;;;5052655;28;20223;-89
2021/01/03 13:11:32;;;;;;;9.38;8.38;;;1.40;99.90;;;;;;5052562;28;20184;-89
2021/01/03 13:13:59;;;;;;;12.77;8.80;;;1.40;99.90;;;;;;5056120;28;20223;-90
2021/01/03 13:16:25;;;;;;;9.25;7.97;;;1.30;99.90;;;;;;5056186;28;20207;-90
2021/01/03 13:18:52;;;;;;;9.10;7.90;;;1.40;99.90;;;;;;5056900;28;20199;-90
2021/01/03 13:21:19;;;;;;;11.40;8.20;;;1.30;99.90;;;;;;5057082;28;20191;-89
2021/01/03 13:23:46;;;;;;;7.32;6.38;;;1.40;99.90;;;;;;5054259;28;20383;-89
2021/01/03 13:26:12;;;;;;;8.80;7.50;;;1.40;99.90;;;;;;5040291;28;20206;-89
2021/01/03 13:28:38;;;;;;;8.02;7.25;;;1.50;99.90;;;;;;5037763;28;20260;-89
2021/01/03 13:31:06;;;;;;;13.70;7.78;;;1.40;99.90;;;;;;5037254;28;20211;-88
2021/01/03 13:33:33;;;;;;;8.38;7.35;;;1.50;99.90;;;;;;5036091;28;20237;-89
2021/01/03 13:35:59;;;;;;;9.63;6.75;;;1.50;99.90;;;;;;5039986;28;20231;-89
2021/01/03 13:38:27;;;;;;;9.02;7.97;;;1.50;99.90;;;;;;5054174;28;20219;-89
2021/01/03 13:40:53;;;;;;;12.15;7.57;;;1.50;99.90;;;;;;5048669;28;20540;-88
2021/01/03 13:43:22;;;;;;;10.27;8.50;;;1.50;99.90;;;;;;5035702;28;20207;-89
2021/01/03 13:45:49;;;;;;;12.07;8.00;;;1.50;99.90;;;;;;5040684;28;20267;-90
2021/01/03 13:48:15;;;;;;;8.73;7.82;;;1.60;99.90;;;;;;5045763;28;20465;-90
2021/01/03 13:50:42;;;;;;;9.10;7.95;;;1.50;99.90;;;;;;5051154;28;20437;-92
2021/01/03 13:53:08;;;;;;;8.90;7.70;;;1.50;99.90;;;;;;5042757;28;20236;-90
2021/01/03 13:55:35;;;;;;;9.85;8.82;;;1.50;99.90;;;;;;5040090;28;20699;-92
2021/01/03 13:58:01;;;;;;;10.65;8.45;;;1.60;99.90;;;;;;5041429;28;20275;-90
2021/01/03 14:00:28;;;;;;;12.73;11.30;;;1.50;99.90;;;;;;5049879;28;20235;-90
2021/01/03 14:02:54;;;;;;;9.27;8.32;;;1.50;99.90;;;;;;5055372;28;20191;-90
2021/01/03 14:05:22;;;;;;;10.75;8.63;;;1.50;99.90;;;;;;5051980;28;20246;-89
2021/01/03 14:07:49;;;;;;;9.20;7.38;;;1.60;99.90;;;;;;5044021;28;20271;-89
2021/01/03 14:10:17;;;;;;;11.32;9.02;;;1.60;99.90;;;;;;5043314;28;20290;-89
2021/01/03 14:12:45;;;;;;;12.10;9.48;;;1.60;99.90;;;;;;5045145;28;20212;-90
2021/01/03 14:15:14;;;;;;;10.80;8.77;;;1.60;99.90;;;;;;5044488;28;20280;-90
2021/01/03 14:17:40;;;;;;;12.88;11.55;;;1.60;99.90;;;;;;5037815;28;20589;-89
2021/01/03 14:20:12;;;;;;;15.95;12.93;;;1.50;99.90;;;;;;5036526;28;20215;-90
2021/01/03 14:22:40;;;;;;;12.75;8.85;;;1.50;99.90;;;;;;5040025;28;20274;-90
2021/01/03 14:25:08;;;;;;;13.05;10.45;;;1.50;99.90;;;;;;5042027;28;20259;-89
2021/01/03 14:27:35;;;;;;;17.55;10.05;;;1.60;99.90;;;;;;5036705;28;20282;-88
2021/01/03 14:30:03;;;;;;;12.35;9.27;;;1.60;99.90;;;;;;5037572;28;20520;-89
2021/01/03 14:32:30;;;;;;;12.93;10.18;;;1.60;99.90;;;;;;5037171;28;20528;-89
2021/01/03 14:34:59;;;;;;;13.20;9.35;;;1.60;99.90;;;;;;5035466;28;20442;-89
2021/01/03 14:37:33;;;;;;;13.43;11.32;;;1.60;99.90;;;;;;5035777;28;20234;-89